createdAt,value
2019-03-05T00:01:49.431Z,98597.65
2019-03-05T00:06:54.504Z,98601.22
2019-03-05T00:11:59.500Z,98604.22
2019-03-05T00:17:04.496Z,98600.31
2019-03-05T00:22:10.945Z,98613.26
2019-03-05T00:27:16.296Z,98608.99
2019-03-05T00:32:21.308Z,98615.43
2019-03-05T00:37:41.407Z,98620.56
2019-03-05T00:43:10.711Z,98608.69
2019-03-05T00:48:56.004Z,98606.92
2019-03-05T00:54:40.843Z,98606.20
2019-03-05T01:00:23.581Z,98608.84
2019-03-05T01:05:52.921Z,98614.84
2019-03-05T01:10:57.909Z,98607.27
2019-03-05T01:16:04.678Z,98610.72
2019-03-05T01:21:09.669Z,98609.97
2019-03-05T01:26:14.668Z,98603.56
2019-03-05T01:31:53.949Z,98616.05
2019-03-05T01:37:00.728Z,98615.89
2019-03-05T01:42:07.333Z,98616.77
2019-03-05T01:47:12.349Z,98619.95
2019-03-05T01:57:36.497Z,98625.80
2019-03-05T02:02:41.523Z,98628.34
2019-03-05T02:07:46.502Z,98639.89
2019-03-05T02:12:51.494Z,98637.25
2019-03-05T02:17:56.613Z,98635.03
2019-03-05T02:23:26.507Z,98641.23
2019-03-05T02:29:06.893Z,98644.47
2019-03-05T02:34:24.243Z,98649.53
2019-03-05T02:40:06.483Z,98643.55
2019-03-05T02:45:43.681Z,98651.41
2019-03-05T02:51:15.285Z,98649.88
2019-03-05T02:56:58.023Z,98644.13
2019-03-05T03:02:10.226Z,98656.52
2019-03-05T03:07:15.328Z,98662.31
2019-03-05T03:12:20.332Z,98654.28
2019-03-05T03:17:25.378Z,98668.76
2019-03-05T03:22:30.361Z,98675.98
2019-03-05T03:27:35.314Z,98686.50
2019-03-05T03:32:42.387Z,98685.67
2019-03-05T03:37:47.348Z,98686.91
2019-03-05T03:42:52.896Z,98691.94
2019-03-05T03:47:58.769Z,98695.13
2019-03-05T03:53:04.180Z,98688.53
2019-03-05T03:58:09.605Z,98701.98
2019-03-05T04:03:14.887Z,98700.98
2019-03-05T04:08:19.932Z,98707.02
2019-03-05T04:13:24.905Z,98715.19
2019-03-05T04:18:30.282Z,98719.47
2019-03-05T04:23:35.274Z,98726.47
2019-03-05T04:28:40.245Z,98729.83
2019-03-05T04:33:45.300Z,98724.38
2019-03-05T04:38:50.376Z,98713.83
2019-03-05T04:43:55.366Z,98730.18
2019-03-05T04:49:26.651Z,98726.07
2019-03-05T04:54:31.665Z,98722.51
2019-03-05T04:59:36.739Z,98734.89
2019-03-05T05:04:41.840Z,98727.79
2019-03-05T05:09:46.844Z,98736.63
2019-03-05T05:14:52.899Z,98739.92
2019-03-05T05:19:57.885Z,98752.68
2019-03-05T05:25:02.921Z,98747.84
2019-03-05T05:30:13.498Z,98745.75
2019-03-05T05:35:18.566Z,98738.86
2019-03-05T05:40:31.479Z,98754.05
2019-03-05T05:45:42.630Z,98760.70
2019-03-05T05:50:47.835Z,98766.03
2019-03-05T05:55:53.118Z,98778.66
2019-03-05T06:01:00.491Z,98767.50
2019-03-05T06:06:05.820Z,98764.66
2019-03-05T06:11:11.166Z,98779.08
2019-03-05T06:16:16.165Z,98783.19
2019-03-05T06:21:21.197Z,98782.47
2019-03-05T06:26:26.212Z,98796.63
2019-03-05T06:31:31.328Z,98807.14
2019-03-05T06:36:53.749Z,98810.63
2019-03-05T06:41:58.757Z,98823.14
2019-03-05T06:47:04.527Z,98811.02
2019-03-05T06:52:11.700Z,98813.70
2019-03-05T06:57:16.333Z,98814.45
2019-03-05T07:02:22.200Z,98824.63
2019-03-05T07:07:31.759Z,98811.66
2019-03-05T07:12:54.378Z,98830.77
2019-03-05T07:18:04.674Z,98838.69
2019-03-05T07:23:18.677Z,98845.94
2019-03-05T07:28:23.843Z,98851.47
2019-03-05T07:33:28.832Z,98858.58
2019-03-05T07:38:33.972Z,98871.73
2019-03-05T07:43:39.043Z,98863.38
2019-03-05T07:48:45.139Z,98871.10
2019-03-05T07:53:50.312Z,98864.12
2019-03-05T07:58:55.423Z,98883.72
2019-03-05T08:04:00.719Z,98887.84
2019-03-05T08:09:31.147Z,98889.39
2019-03-05T08:15:01.331Z,98895.97
2019-03-05T08:20:09.653Z,98890.44
2019-03-05T08:25:15.247Z,98892.41
2019-03-05T08:30:20.541Z,98905.98
2019-03-05T08:35:25.599Z,98911.13
2019-03-05T08:40:31.508Z,98920.52
2019-03-05T08:45:36.555Z,98915.55
2019-03-05T08:50:55.299Z,98915.55
2019-03-05T08:56:00.767Z,98924.10
2019-03-05T09:01:07.627Z,98927.88
2019-03-05T09:06:12.909Z,98928.56
2019-03-05T09:11:18.352Z,98926.13
2019-03-05T09:16:23.663Z,98937.30
2019-03-05T09:21:29.973Z,98945.19
2019-03-05T09:26:36.152Z,98949.47
2019-03-05T09:31:41.655Z,98951.16
2019-03-05T09:36:51.086Z,98948.56
2019-03-05T09:41:53.768Z,98945.97
2019-03-05T09:46:58.908Z,98958.13
2019-03-05T09:52:03.978Z,98955.69
2019-03-05T09:57:09.055Z,98950.53
2019-03-05T10:02:14.291Z,98962.89
2019-03-05T10:07:19.508Z,98945.73
2019-03-05T10:12:24.819Z,98956.48
2019-03-05T10:17:37.584Z,98947.64
2019-03-05T10:22:37.424Z,98947.82
2019-03-05T10:27:42.776Z,98966.13
2019-03-05T10:32:49.303Z,98968.42
2019-03-05T10:37:56.175Z,98962.08
2019-03-05T10:43:08.418Z,98972.02
2019-03-05T10:48:09.756Z,98946.53
2019-03-05T10:53:15.470Z,98979.73
2019-03-05T10:58:21.225Z,98979.67
2019-03-05T11:03:27.792Z,98987.26
2019-03-05T11:08:32.985Z,98988.45
2019-03-05T11:13:39.543Z,98983.42
2019-03-05T11:18:45.158Z,98997.40
2019-03-05T11:23:50.247Z,98986.77
2019-03-05T11:28:57.041Z,99004.53
2019-03-05T11:34:02.234Z,98988.14
2019-03-05T11:39:07.819Z,98977.00
2019-03-05T11:44:14.726Z,98984.69
2019-03-05T11:49:20.263Z,98992.65
2019-03-05T11:54:25.385Z,98998.58
2019-03-05T11:59:30.664Z,98990.49
2019-03-05T12:04:35.816Z,98990.88
2019-03-05T12:09:41.619Z,99004.94
2019-03-05T12:14:46.987Z,98997.41
2019-03-05T12:19:52.166Z,99002.50
2019-03-05T12:24:57.701Z,99002.30
2019-03-05T12:30:04.655Z,99000.23
2019-03-05T12:35:11.821Z,98993.66
2019-03-05T12:40:17.382Z,99009.34
2019-03-05T12:45:22.935Z,99004.64
2019-03-05T12:50:28.486Z,99008.97
2019-03-05T12:55:33.897Z,98997.59
2019-03-05T13:00:38.946Z,98996.63
2019-03-05T13:05:44.490Z,99001.73
2019-03-05T13:10:49.885Z,99019.83
2019-03-05T13:15:56.494Z,99041.40
2019-03-05T13:21:03.506Z,99038.42
2019-03-05T13:26:09.432Z,99031.45
2019-03-05T13:31:14.979Z,99049.90
2019-03-05T13:36:20.597Z,99046.97
2019-03-05T13:41:25.927Z,99051.24
2019-03-05T13:46:31.216Z,99043.04
2019-03-05T13:52:12.970Z,99036.12
2019-03-05T13:57:51.409Z,99042.18
2019-03-05T14:03:03.560Z,99045.66
2019-03-05T14:08:53.602Z,99046.63
2019-03-05T14:13:58.703Z,99036.59
2019-03-05T14:19:03.993Z,99049.84
2019-03-05T14:24:09.222Z,99060.20
2019-03-05T14:29:14.568Z,99047.11
2019-03-05T14:34:19.662Z,99051.71
2019-03-05T14:39:32.008Z,99059.55
2019-03-05T14:44:40.109Z,99067.10
2019-03-05T14:49:44.766Z,99067.28
2019-03-05T14:54:49.904Z,99062.19
2019-03-05T14:59:55.085Z,99079.59
2019-03-05T15:05:00.439Z,99086.06
2019-03-05T15:10:08.661Z,99100.34
2019-03-05T15:15:26.077Z,99105.84
2019-03-05T15:20:33.270Z,99108.71
2019-03-05T15:25:38.943Z,99115.47
2019-03-05T15:30:44.087Z,99125.64
2019-03-05T15:35:49.471Z,99125.63
2019-03-05T15:40:54.886Z,99131.01
2019-03-05T15:46:00.429Z,99140.95
2019-03-05T15:51:06.264Z,99128.97
2019-03-05T15:56:12.063Z,99134.16
2019-03-05T16:01:22.362Z,99139.95
2019-03-05T16:06:24.814Z,99156.17
2019-03-05T16:11:33.633Z,99163.45
2019-03-05T16:16:36.796Z,99166.98
2019-03-05T16:21:44.132Z,99170.57
2019-03-05T16:26:51.172Z,99173.81
2019-03-05T16:32:23.100Z,99185.41
2019-03-05T16:37:44.654Z,99193.73
2019-03-05T16:43:07.396Z,99200.30
2019-03-05T16:48:30.057Z,99222.23
2019-03-05T16:53:53.157Z,99217.59
2019-03-05T16:59:20.816Z,99231.66
2019-03-05T17:04:54.410Z,99240.88
2019-03-05T17:10:36.867Z,99261.30
2019-03-05T17:15:42.199Z,99267.23
2019-03-05T17:20:47.485Z,99275.85
2019-03-05T17:25:53.798Z,99290.13
2019-03-05T17:31:01.622Z,99305.08
2019-03-05T17:36:08.827Z,99317.03
2019-03-05T17:41:14.814Z,99330.64
2019-03-05T17:46:20.527Z,99329.50
2019-03-05T17:51:26.678Z,99348.73
2019-03-05T17:56:32.171Z,99359.45
2019-03-05T18:01:37.600Z,99368.02
2019-03-05T18:06:43.218Z,99367.05
2019-03-05T18:11:48.556Z,99376.84
2019-03-05T18:16:53.874Z,99377.12
2019-03-05T18:22:01.689Z,99386.30
2019-03-05T18:27:08.232Z,99394.50
2019-03-05T18:32:13.788Z,99398.25
2019-03-05T18:37:19.360Z,99409.55
2019-03-05T18:42:24.679Z,99411.15
2019-03-05T18:47:30.091Z,99427.38
2019-03-05T18:52:35.436Z,99437.63
2019-03-05T18:57:40.822Z,99446.14
2019-03-05T19:02:46.424Z,99449.70
2019-03-05T19:07:51.610Z,99463.97
2019-03-05T19:12:57.602Z,99473.01
2019-03-05T19:18:03.246Z,99483.52
2019-03-05T19:23:08.398Z,99499.92
2019-03-05T19:28:13.630Z,99508.36
2019-03-05T19:33:20.307Z,99517.83
2019-03-05T19:38:25.658Z,99516.79
2019-03-05T19:43:30.915Z,99515.23
2019-03-05T19:48:36.290Z,99533.80
2019-03-05T19:53:41.570Z,99534.63
2019-03-05T19:58:47.432Z,99546.29
2019-03-05T20:03:53.141Z,99546.02
2019-03-05T20:08:58.516Z,99555.84
2019-03-05T20:14:03.712Z,99561.91
2019-03-05T20:19:08.734Z,99566.67
2019-03-05T20:24:14.777Z,99571.96
2019-03-05T20:29:20.990Z,99574.60
2019-03-05T20:34:26.254Z,99578.55
2019-03-05T20:39:32.138Z,99574.34
2019-03-05T20:44:37.558Z,99589.11
2019-03-05T20:49:42.962Z,99600.70
2019-03-05T20:54:48.149Z,99595.70
2019-03-05T20:59:54.274Z,99602.29
2019-03-05T21:04:59.435Z,99607.02
2019-03-05T21:10:05.146Z,99614.41
2019-03-05T21:15:11.476Z,99624.41
2019-03-05T21:20:17.286Z,99632.84
2019-03-05T21:25:22.298Z,99638.88
2019-03-05T21:30:27.507Z,99639.09
2019-03-05T21:35:32.721Z,99654.89
2019-03-05T21:40:37.841Z,99666.21
2019-03-05T21:45:44.497Z,99666.44
2019-03-05T21:50:54.902Z,99669.07
2019-03-05T21:55:59.988Z,99675.41
2019-03-05T22:01:05.174Z,99681.42
2019-03-05T22:06:10.221Z,99695.34
2019-03-05T22:11:15.250Z,99698.77
2019-03-05T22:16:20.312Z,99705.34
2019-03-05T22:21:25.740Z,99710.57
2019-03-05T22:26:31.802Z,99711.59
2019-03-05T22:31:36.934Z,99720.80
2019-03-05T22:36:42.227Z,99726.81
2019-03-05T22:41:47.240Z,99733.41
2019-03-05T22:46:52.574Z,99740.04
2019-03-05T22:51:57.540Z,99739.44
2019-03-05T22:57:02.570Z,99747.57
2019-03-05T23:02:08.054Z,99744.92
2019-03-05T23:07:14.488Z,99752.27
2019-03-05T23:12:19.647Z,99753.53
2019-03-05T23:17:24.782Z,99758.20
2019-03-05T23:22:30.911Z,99761.64
2019-03-05T23:27:36.344Z,99763.73
2019-03-05T23:32:41.324Z,99766.63
2019-03-05T23:37:47.548Z,99773.78
2019-03-05T23:42:52.576Z,99771.91
2019-03-05T23:47:57.876Z,99771.22
2019-03-05T23:53:02.932Z,99777.06
2019-03-05T23:58:08.119Z,99783.67
